createdAt,value
2023-01-03T00:01:34.328Z,100.00
2023-01-03T00:04:03.729Z,100.00
2023-01-03T00:06:34.293Z,100.00
2023-01-03T01:31:26.123Z,100.00
2023-01-03T01:34:07.134Z,100.00
2023-01-03T01:36:51.841Z,100.00
2023-01-03T01:39:49.353Z,100.00
2023-01-03T01:45:42.796Z,100.00
2023-01-03T01:48:37.131Z,100.00
2023-01-03T01:51:12.463Z,100.00
2023-01-03T02:04:47.824Z,100.00
2023-01-03T02:10:27.878Z,100.00
2023-01-03T02:13:28.099Z,100.00
2023-01-03T02:16:29.294Z,100.00
2023-01-03T05:03:28.166Z,100.00
2023-01-03T05:09:32.361Z,100.00
2023-01-03T05:12:12.815Z,99.94
2023-01-03T05:15:03.835Z,100.00
2023-01-03T05:17:42.893Z,100.00
2023-01-03T05:23:53.417Z,99.85
2023-01-03T05:36:39.302Z,98.18
2023-01-03T05:42:29.392Z,96.95
2023-01-03T06:02:46.074Z,97.83
2023-01-03T07:26:28.819Z,100.00
2023-01-03T07:28:58.413Z,100.00
2023-01-03T07:31:35.271Z,100.00
2023-01-03T07:34:10.205Z,100.00
2023-01-03T07:36:50.277Z,100.00
2023-01-03T07:42:44.482Z,100.00
2023-01-03T07:45:15.728Z,100.00
2023-01-03T07:47:47.728Z,100.00
2023-01-03T07:50:23.933Z,100.00
2023-01-03T07:52:55.705Z,100.00
2023-01-03T07:55:24.179Z,100.00
2023-01-03T07:57:53.561Z,100.00
2023-01-03T08:00:32.704Z,100.00
2023-01-03T08:03:10.600Z,100.00
2023-01-03T08:05:47.674Z,100.00
2023-01-03T08:08:20.368Z,100.00
2023-01-03T08:11:11.072Z,100.00
2023-01-03T08:13:53.579Z,100.00
2023-01-03T08:16:35.228Z,100.00
2023-01-03T08:19:10.100Z,100.00
2023-01-03T08:21:46.993Z,100.00
2023-01-03T08:24:17.612Z,100.00
2023-01-03T08:26:47.127Z,100.00
2023-01-03T08:29:26.297Z,100.00
2023-01-03T08:32:00.355Z,100.00
2023-01-03T08:41:53.892Z,100.00
2023-01-03T08:44:29.763Z,100.00
2023-01-03T08:47:08.138Z,100.00
2023-01-03T09:10:35.940Z,98.90
2023-01-03T09:13:05.669Z,96.81
2023-01-03T09:25:15.219Z,94.43
2023-01-03T09:27:55.539Z,94.79
2023-01-03T09:30:30.666Z,94.30
2023-01-03T09:33:30.101Z,93.38
2023-01-03T09:39:43.542Z,92.25
2023-01-03T09:42:40.637Z,91.96
2023-01-03T09:45:45.664Z,92.25
2023-01-03T09:55:09.519Z,91.96
2023-01-03T09:58:06.160Z,91.89
2023-01-03T10:01:05.767Z,92.32
2023-01-03T10:04:05.229Z,91.06
2023-01-03T10:07:10.834Z,91.75
2023-01-03T10:09:49.824Z,90.81
2023-01-03T10:12:31.280Z,89.34
2023-01-03T10:15:20.985Z,88.81
2023-01-03T10:18:04.077Z,88.67
2023-01-03T10:20:46.018Z,88.52
2023-01-03T10:23:22.796Z,87.06
2023-01-03T10:25:55.094Z,87.41
2023-01-03T10:28:42.359Z,86.67
2023-01-03T10:31:26.700Z,86.01
2023-01-03T10:33:57.720Z,86.74
2023-01-03T10:36:29.778Z,85.87
2023-01-03T10:39:11.088Z,85.90
2023-01-03T10:41:48.130Z,85.82
2023-01-03T10:44:30.216Z,84.11
2023-01-03T10:50:41.562Z,86.56
2023-01-03T10:53:26.335Z,85.20
2023-01-03T10:56:17.944Z,83.19
2023-01-03T10:58:54.566Z,84.45
2023-01-03T11:04:48.312Z,81.45
2023-01-03T11:07:34.129Z,77.40
2023-01-03T11:20:34.086Z,77.97
2023-01-03T11:23:40.203Z,78.69
2023-01-03T11:26:22.272Z,80.32
2023-01-03T11:29:16.871Z,81.92
2023-01-03T11:31:57.067Z,81.23
2023-01-03T11:35:20.721Z,82.81
2023-01-03T11:37:47.922Z,79.73
2023-01-03T11:40:54.100Z,80.40
2023-01-03T11:43:52.446Z,81.95
2023-01-03T11:46:38.704Z,82.35
2023-01-03T11:49:34.777Z,82.52
2023-01-03T11:52:26.498Z,81.97
2023-01-03T11:55:20.717Z,81.30
2023-01-03T11:58:02.318Z,82.10
2023-01-03T12:00:39.906Z,81.80
2023-01-03T12:03:18.058Z,79.51
2023-01-03T12:06:29.934Z,79.36
2023-01-03T12:09:15.462Z,78.63
2023-01-03T12:12:10.925Z,78.11
2023-01-03T12:14:54.725Z,79.38
2023-01-03T12:17:28.884Z,78.90
2023-01-03T12:20:13.175Z,79.47
2023-01-03T12:23:03.320Z,79.75
2023-01-03T12:25:46.993Z,79.79
2023-01-03T12:28:44.347Z,80.34
2023-01-03T12:31:37.389Z,80.44
2023-01-03T12:34:27.839Z,80.05
2023-01-03T12:40:42.501Z,78.98
2023-01-03T12:43:19.860Z,78.15
2023-01-03T12:51:46.271Z,75.48
2023-01-03T12:54:37.990Z,74.27
2023-01-03T12:57:33.156Z,73.97
2023-01-03T13:03:44.723Z,73.58
2023-01-03T13:06:37.580Z,73.47
2023-01-03T13:09:44.378Z,75.58
2023-01-03T13:12:43.157Z,74.48
2023-01-03T13:15:37.740Z,74.62
2023-01-03T13:18:47.336Z,73.41
2023-01-03T13:22:18.923Z,72.43
2023-01-03T13:25:03.446Z,73.17
2023-01-03T13:27:39.493Z,73.64
2023-01-03T13:33:27.495Z,76.76
2023-01-03T13:39:11.548Z,77.72
2023-01-03T14:30:40.141Z,77.93
2023-01-03T14:33:33.665Z,79.56
2023-01-03T14:36:16.478Z,79.82
2023-01-03T14:39:00.374Z,79.67
2023-01-03T14:41:38.463Z,79.95
2023-01-03T14:44:49.148Z,79.29
2023-01-03T14:50:34.191Z,79.13
2023-01-03T14:53:08.717Z,78.57
2023-01-03T14:55:47.328Z,78.96
2023-01-03T15:01:43.407Z,80.19
2023-01-03T15:04:32.941Z,81.08
2023-01-03T15:07:13.519Z,79.70
2023-01-03T15:09:44.496Z,80.31
2023-01-03T15:12:20.200Z,80.00
2023-01-03T15:17:44.694Z,81.74
2023-01-03T15:33:44.825Z,82.21
2023-01-03T15:36:21.585Z,82.68
2023-01-03T15:38:54.785Z,83.62
2023-01-03T17:11:51.574Z,90.66
2023-01-03T17:17:38.919Z,91.90
2023-01-03T17:39:42.769Z,93.27
2023-01-03T18:43:00.942Z,97.22
2023-01-03T22:35:05.722Z,99.18
2023-01-03T22:40:39.077Z,97.35
2023-01-03T22:43:22.484Z,96.31
2023-01-03T22:46:03.258Z,96.95
2023-01-03T22:48:55.170Z,97.08
2023-01-03T22:51:42.824Z,96.70
2023-01-03T22:54:31.205Z,96.93
2023-01-03T22:57:05.062Z,96.22
2023-01-03T22:59:39.910Z,95.75
2023-01-03T23:02:28.835Z,96.13
2023-01-03T23:05:17.944Z,95.28
2023-01-03T23:07:52.773Z,94.98
2023-01-03T23:13:40.813Z,93.57
2023-01-03T23:16:27.177Z,94.70
2023-01-03T23:18:59.698Z,94.56
2023-01-03T23:22:30.636Z,94.74
2023-01-03T23:25:16.734Z,95.07
2023-01-03T23:27:49.741Z,95.20
2023-01-03T23:30:23.419Z,95.21
2023-01-03T23:32:52.152Z,95.08
2023-01-03T23:35:23.597Z,94.90
2023-01-03T23:38:07.107Z,93.83
2023-01-03T23:40:41.556Z,94.16
2023-01-03T23:43:25.570Z,93.81
2023-01-03T23:45:59.040Z,94.63
2023-01-03T23:48:30.766Z,94.11
2023-01-03T23:51:15.284Z,94.16
2023-01-03T23:53:58.069Z,93.87
2023-01-03T23:56:47.964Z,94.23
2023-01-03T23:59:33.980Z,94.25
